Time,TemperatureF,DewpointF,PressureIn,WindDirection,WindDirectionDegrees,WindSpeedMPH,WindSpeedGustMPH,Humidity,HourlyPrecipIn,Conditions,Clouds,dailyrainin,SolarRadiationWatts/m^2,SoftwareType,DateUTC
2013-06-01 00:01:00,44.0,43.0,-100.00,NNE,21,0.0,1.0,97,0.00,,,0.02,1.000000,,2013-06-01 07:01:00,
2013-06-01 00:10:00,43.0,42.0,-100.00,NNE,21,0.0,0.0,97,0.00,,,-99.99,1.000000,,2013-06-01 07:10:00,
2013-06-01 00:32:00,43.0,42.0,-100.00,NNE,21,0.0,0.0,97,0.00,,,-99.99,1.000000,,2013-06-01 07:32:00,
2013-06-01 00:42:00,43.0,42.0,-100.00,NNE,21,0.0,0.0,97,0.00,,,-99.99,1.000000,,2013-06-01 07:42:00,
2013-06-01 00:52:00,43.0,42.0,-100.00,NNE,21,0.0,0.0,97,0.00,,,-99.99,1.000000,,2013-06-01 07:52:00,
2013-06-01 01:02:00,43.0,42.0,-100.00,NNE,21,0.0,0.0,97,0.00,,,-99.99,1.000000,,2013-06-01 08:02:00,
2013-06-01 01:10:00,42.0,41.0,-100.00,NNE,21,0.0,0.0,98,0.00,,,0.01,1.000000,,2013-06-01 08:10:00,
2013-06-01 01:32:00,42.0,41.0,-100.00,NNE,21,0.0,0.0,98,0.00,,,0.01,1.000000,,2013-06-01 08:32:00,
2013-06-01 01:42:00,42.0,41.0,-100.00,NNE,21,0.0,0.0,98,0.00,,,0.01,1.000000,,2013-06-01 08:42:00,
2013-06-01 01:52:00,42.0,41.0,-100.00,NNE,21,0.0,0.0,98,0.00,,,0.01,1.000000,,2013-06-01 08:52:00,
2013-06-01 02:01:00,42.0,41.0,-100.00,NNE,21,0.0,0.0,98,0.00,,,0.01,1.000000,,2013-06-01 09:01:00,
2013-06-01 02:10:00,43.0,42.0,-100.00,NNE,21,0.0,0.0,98,0.00,,,0.01,1.000000,,2013-06-01 09:10:00,
2013-06-01 02:33:00,43.0,42.0,-100.00,NNE,21,0.0,0.0,98,0.00,,,0.01,1.000000,,2013-06-01 09:33:00,
2013-06-01 02:43:00,43.0,42.0,-100.00,NNE,21,0.0,0.0,98,0.00,,,0.01,1.000000,,2013-06-01 09:43:00,
2013-06-01 02:53:00,43.0,42.0,-100.00,NNE,21,0.0,0.0,98,0.00,,,0.01,1.000000,,2013-06-01 09:53:00,
2013-06-01 03:02:00,43.0,42.0,-100.00,NNE,21,0.0,0.0,98,0.00,,,0.01,1.000000,,2013-06-01 10:02:00,
2013-06-01 03:10:00,43.0,42.0,-100.00,NNE,33,0.0,3.0,98,0.00,,,0.01,1.000000,,2013-06-01 10:10:00,
2013-06-01 03:33:00,43.0,42.0,-100.00,NNE,33,0.0,3.0,98,0.00,,,0.01,1.000000,,2013-06-01 10:33:00,
2013-06-01 03:42:00,43.0,42.0,-100.00,NNE,33,0.0,3.0,98,0.00,,,0.01,1.000000,,2013-06-01 10:42:00,
2013-06-01 03:52:00,43.0,42.0,-100.00,NNE,33,0.0,3.0,98,0.00,,,0.01,1.000000,,2013-06-01 10:52:00,
2013-06-01 04:02:00,43.0,42.0,-100.00,NNE,33,0.0,3.0,98,0.00,,,0.01,1.000000,,2013-06-01 11:02:00,
2013-06-01 04:10:00,43.0,42.0,-100.00,SSE,155,2.0,3.0,97,0.00,,,0.00,1.000000,,2013-06-01 11:10:00,
2013-06-01 04:33:00,43.0,42.0,-100.00,SSE,155,2.0,3.0,97,0.00,,,0.00,1.000000,,2013-06-01 11:33:00,
2013-06-01 04:42:00,43.0,42.0,-100.00,SSE,155,2.0,3.0,97,0.00,,,0.00,1.000000,,2013-06-01 11:42:00,
2013-06-01 04:52:00,43.0,42.0,-100.00,SSE,155,2.0,3.0,97,0.00,,,0.00,1.000000,,2013-06-01 11:52:00,
2013-06-01 05:01:00,43.0,42.0,-100.00,SSE,155,2.0,3.0,97,0.00,,,0.00,1.000000,,2013-06-01 12:01:00,
2013-06-01 05:10:00,43.0,42.0,-100.00,SSE,152,0.0,3.0,97,0.00,,,0.00,1.000000,,2013-06-01 12:10:00,
2013-06-01 05:32:00,43.0,42.0,-100.00,SSE,152,0.0,3.0,97,0.00,,,0.00,1.000000,,2013-06-01 12:32:00,
2013-06-01 05:42:00,43.0,42.0,-100.00,SSE,152,0.0,3.0,97,0.00,,,0.00,1.000000,,2013-06-01 12:42:00,
2013-06-01 05:52:00,43.0,42.0,-100.00,SSE,152,0.0,3.0,97,0.00,,,0.00,1.000000,,2013-06-01 12:52:00,
2013-06-01 06:01:00,43.0,42.0,-100.00,SSE,152,0.0,3.0,97,0.00,,,0.00,1.000000,,2013-06-01 13:01:00,
2013-06-01 06:10:00,44.0,43.0,-100.00,SSE,154,0.0,2.0,97,0.00,,,0.00,11.000000,,2013-06-01 13:10:00,
2013-06-01 06:32:00,44.0,43.0,-100.00,SSE,154,0.0,2.0,97,0.00,,,0.00,11.000000,,2013-06-01 13:32:00,
2013-06-01 06:42:00,44.0,43.0,-100.00,SSE,154,0.0,2.0,97,0.00,,,0.00,11.000000,,2013-06-01 13:42:00,
2013-06-01 06:52:00,44.0,43.0,-100.00,SSE,154,0.0,2.0,97,0.00,,,0.00,11.000000,,2013-06-01 13:52:00,
2013-06-01 07:02:00,44.0,43.0,-100.00,SSE,154,0.0,2.0,97,0.00,,,0.00,11.000000,,2013-06-01 14:02:00,
2013-06-01 07:10:00,47.0,46.0,-100.00,SSE,154,0.0,0.0,95,0.00,,,0.00,53.000000,,2013-06-01 14:10:00,
2013-06-01 07:32:00,47.0,46.0,-100.00,SSE,154,0.0,0.0,95,0.00,,,0.00,53.000000,,2013-06-01 14:32:00,
2013-06-01 07:42:00,47.0,46.0,-100.00,SSE,154,0.0,0.0,95,0.00,,,0.00,53.000000,,2013-06-01 14:42:00,
2013-06-01 07:52:00,47.0,46.0,-100.00,SSE,154,0.0,0.0,95,0.00,,,0.00,53.000000,,2013-06-01 14:52:00,
2013-06-01 08:01:00,47.0,46.0,-100.00,SSE,154,0.0,0.0,95,0.00,,,0.00,53.000000,,2013-06-01 15:01:00,
2013-06-01 08:10:00,51.0,46.0,-100.00,SSW,211,0.0,3.0,83,0.00,,,0.00,139.000000,,2013-06-01 15:10:00,
2013-06-01 08:33:00,51.0,46.0,-100.00,SSW,211,0.0,3.0,83,0.00,,,0.00,139.000000,,2013-06-01 15:33:00,
2013-06-01 08:43:00,51.0,46.0,-100.00,SSW,211,0.0,3.0,83,0.00,,,0.00,139.000000,,2013-06-01 15:43:00,
2013-06-01 08:53:00,51.0,46.0,-100.00,SSW,211,0.0,3.0,83,0.00,,,0.00,139.000000,,2013-06-01 15:53:00,
2013-06-01 09:03:00,51.0,46.0,-100.00,SSW,211,0.0,3.0,83,0.00,,,0.00,139.000000,,2013-06-01 16:03:00,
2013-06-01 09:10:00,56.0,48.0,-100.00,SSW,212,1.0,5.0,75,0.00,,,0.00,300.000000,,2013-06-01 16:10:00,
2013-06-01 09:33:00,56.0,48.0,-100.00,SSW,212,1.0,5.0,75,0.00,,,0.00,300.000000,,2013-06-01 16:33:00,
2013-06-01 09:42:00,56.0,48.0,-100.00,SSW,212,1.0,5.0,75,0.00,,,0.00,300.000000,,2013-06-01 16:42:00,
2013-06-01 09:52:00,56.0,48.0,-100.00,SSW,212,1.0,5.0,75,0.00,,,0.00,300.000000,,2013-06-01 16:52:00,
2013-06-01 10:02:00,56.0,48.0,-100.00,SSW,212,1.0,5.0,75,0.00,,,0.00,300.000000,,2013-06-01 17:02:00,
2013-06-01 10:10:00,62.0,47.0,-100.00,SW,216,2.0,6.0,59,0.00,,,0.00,454.000000,,2013-06-01 17:10:00,
2013-06-01 10:32:00,62.0,47.0,-100.00,SW,216,2.0,6.0,59,0.00,,,0.00,454.000000,,2013-06-01 17:32:00,
2013-06-01 10:42:00,62.0,47.0,-100.00,SW,216,2.0,6.0,59,0.00,,,0.00,454.000000,,2013-06-01 17:42:00,
2013-06-01 10:52:00,62.0,47.0,-100.00,SW,216,2.0,6.0,59,0.00,,,0.00,454.000000,,2013-06-01 17:52:00,
2013-06-01 11:01:00,62.0,47.0,-100.00,SW,216,2.0,6.0,59,0.00,,,0.00,454.000000,,2013-06-01 18:01:00,
2013-06-01 11:10:00,65.0,45.0,-100.00,West,263,3.0,8.0,49,0.00,,,0.00,617.000000,,2013-06-01 18:10:00,
2013-06-01 11:32:00,65.0,45.0,-100.00,West,263,3.0,8.0,49,0.00,,,0.00,617.000000,,2013-06-01 18:32:00,
2013-06-01 11:42:00,65.0,45.0,-100.00,West,263,3.0,8.0,49,0.00,,,0.00,617.000000,,2013-06-01 18:42:00,
2013-06-01 11:52:00,65.0,45.0,-100.00,West,263,3.0,8.0,49,0.00,,,0.00,617.000000,,2013-06-01 18:52:00,
2013-06-01 12:01:00,65.0,45.0,-100.00,West,263,3.0,8.0,49,0.00,,,0.00,617.000000,,2013-06-01 19:01:00,
2013-06-01 12:10:00,67.0,43.0,-100.00,NW,326,3.0,9.0,41,0.00,,,0.00,747.000000,,2013-06-01 19:10:00,
2013-06-01 12:32:00,67.0,43.0,-100.00,NW,326,3.0,9.0,41,0.00,,,0.00,747.000000,,2013-06-01 19:32:00,
2013-06-01 12:42:00,67.0,43.0,-100.00,NW,326,3.0,9.0,41,0.00,,,0.00,747.000000,,2013-06-01 19:42:00,
2013-06-01 12:52:00,67.0,43.0,-100.00,NW,326,3.0,9.0,41,0.00,,,0.00,747.000000,,2013-06-01 19:52:00,
2013-06-01 13:01:00,67.0,43.0,-100.00,NW,326,3.0,9.0,41,0.00,,,0.00,747.000000,,2013-06-01 20:01:00,
2013-06-01 13:10:00,69.0,43.0,-100.00,North,352,5.0,9.0,39,0.00,,,0.00,936.000000,,2013-06-01 20:10:00,
2013-06-01 13:32:00,69.0,43.0,-100.00,North,352,5.0,9.0,39,0.00,,,0.00,936.000000,,2013-06-01 20:32:00,
2013-06-01 13:42:00,69.0,43.0,-100.00,North,352,5.0,9.0,39,0.00,,,0.00,936.000000,,2013-06-01 20:42:00,
2013-06-01 13:52:00,69.0,43.0,-100.00,North,352,5.0,9.0,39,0.00,,,0.00,936.000000,,2013-06-01 20:52:00,
2013-06-01 14:01:00,69.0,43.0,-100.00,North,352,5.0,9.0,39,0.00,,,0.00,936.000000,,2013-06-01 21:01:00,
2013-06-01 14:10:00,71.0,47.0,-100.00,SSW,201,4.0,10.0,42,0.00,,,0.00,1049.000000,,2013-06-01 21:10:00,
2013-06-01 14:33:00,71.0,47.0,-100.00,SSW,201,4.0,10.0,42,0.00,,,0.00,1049.000000,,2013-06-01 21:33:00,
2013-06-01 14:43:00,71.0,47.0,-100.00,SSW,201,4.0,10.0,42,0.00,,,0.00,1049.000000,,2013-06-01 21:43:00,
2013-06-01 14:53:00,71.0,47.0,-100.00,SSW,201,4.0,10.0,42,0.00,,,0.00,1049.000000,,2013-06-01 21:53:00,
2013-06-01 15:03:00,71.0,47.0,-100.00,SSW,201,4.0,10.0,42,0.00,,,0.00,1049.000000,,2013-06-01 22:03:00,
2013-06-01 15:10:00,73.0,49.0,-100.00,WSW,255,2.0,14.0,43,0.00,,,0.00,978.000000,,2013-06-01 22:10:00,
2013-06-01 15:33:00,73.0,49.0,-100.00,WSW,255,2.0,14.0,43,0.00,,,0.00,978.000000,,2013-06-01 22:33:00,
2013-06-01 15:42:00,73.0,49.0,-100.00,WSW,255,2.0,14.0,43,0.00,,,0.00,978.000000,,2013-06-01 22:42:00,
2013-06-01 15:53:00,73.0,49.0,-100.00,WSW,255,2.0,14.0,43,0.00,,,0.00,978.000000,,2013-06-01 22:53:00,
2013-06-01 16:02:00,73.0,49.0,-100.00,WSW,255,2.0,14.0,43,0.00,,,0.00,978.000000,,2013-06-01 23:02:00,
2013-06-01 16:10:00,72.0,48.0,-100.00,West,280,3.0,10.0,42,0.00,,,0.00,721.000000,,2013-06-01 23:10:00,
2013-06-01 16:32:00,72.0,48.0,-100.00,West,280,3.0,10.0,42,0.00,,,0.00,721.000000,,2013-06-01 23:32:00,
2013-06-01 16:42:00,72.0,48.0,-100.00,West,280,3.0,10.0,42,0.00,,,0.00,721.000000,,2013-06-01 23:42:00,
2013-06-01 16:52:00,72.0,48.0,-100.00,West,280,3.0,10.0,42,0.00,,,0.00,721.000000,,2013-06-01 23:52:00,
2013-06-01 17:02:00,72.0,48.0,-100.00,West,280,3.0,10.0,42,0.00,,,0.00,721.000000,,2013-06-02 00:02:00,
2013-06-01 17:10:00,72.0,46.0,-100.00,SSW,209,2.0,9.0,39,0.00,,,0.00,722.000000,,2013-06-02 00:10:00,
2013-06-01 17:32:00,72.0,46.0,-100.00,SSW,209,2.0,9.0,39,0.00,,,0.00,722.000000,,2013-06-02 00:32:00,
2013-06-01 17:42:00,72.0,46.0,-100.00,SSW,209,2.0,9.0,39,0.00,,,0.00,722.000000,,2013-06-02 00:42:00,
2013-06-01 17:52:00,72.0,46.0,-100.00,SSW,209,2.0,9.0,39,0.00,,,0.00,722.000000,,2013-06-02 00:52:00,
2013-06-01 18:01:00,72.0,46.0,-100.00,SSW,209,2.0,9.0,39,0.00,,,0.00,722.000000,,2013-06-02 01:01:00,
2013-06-01 18:10:00,70.0,46.0,-100.00,NW,314,3.0,8.0,43,0.00,,,0.00,388.000000,,2013-06-02 01:10:00,
2013-06-01 18:42:00,70.0,46.0,-100.00,NW,314,3.0,8.0,43,0.00,,,0.00,388.000000,,2013-06-02 01:42:00,
2013-06-01 18:52:00,70.0,46.0,-100.00,NW,314,3.0,8.0,43,0.00,,,0.00,388.000000,,2013-06-02 01:52:00,
2013-06-01 19:01:00,70.0,46.0,-100.00,NW,314,3.0,8.0,43,0.00,,,0.00,388.000000,,2013-06-02 02:01:00,
2013-06-01 19:10:00,66.0,47.0,-100.00,SW,222,0.0,10.0,50,0.00,,,0.00,269.000000,,2013-06-02 02:10:00,
2013-06-01 19:32:00,66.0,47.0,-100.00,SW,222,0.0,10.0,50,0.00,,,0.00,269.000000,,2013-06-02 02:32:00,
2013-06-01 19:42:00,66.0,47.0,-100.00,SW,222,0.0,10.0,50,0.00,,,0.00,269.000000,,2013-06-02 02:42:00,
2013-06-01 19:52:00,66.0,47.0,-100.00,SW,222,0.0,10.0,50,0.00,,,0.00,269.000000,,2013-06-02 02:52:00,
2013-06-01 20:02:00,66.0,47.0,-100.00,SW,222,0.0,10.0,50,0.00,,,0.00,269.000000,,2013-06-02 03:02:00,
2013-06-01 20:10:00,64.0,47.0,-100.00,SW,224,1.0,4.0,53,0.00,,,0.00,76.000000,,2013-06-02 03:10:00,
2013-06-01 20:33:00,64.0,47.0,-100.00,SW,224,1.0,4.0,53,0.00,,,0.00,76.000000,,2013-06-02 03:33:00,
2013-06-01 20:43:00,64.0,47.0,-100.00,SW,224,1.0,4.0,53,0.00,,,0.00,76.000000,,2013-06-02 03:43:00,
2013-06-01 20:53:00,64.0,47.0,-100.00,SW,224,1.0,4.0,53,0.00,,,0.00,76.000000,,2013-06-02 03:53:00,
2013-06-01 21:02:00,64.0,47.0,-100.00,SW,224,1.0,4.0,53,0.00,,,0.00,76.000000,,2013-06-02 04:02:00,
2013-06-01 21:10:00,56.0,50.0,-100.00,WNW,301,0.0,3.0,79,0.00,,,0.00,14.000000,,2013-06-02 04:10:00,
2013-06-01 21:33:00,56.0,50.0,-100.00,WNW,301,0.0,3.0,79,0.00,,,0.00,14.000000,,2013-06-02 04:33:00,
2013-06-01 21:42:00,56.0,50.0,-100.00,WNW,301,0.0,3.0,79,0.00,,,0.00,14.000000,,2013-06-02 04:42:00,
2013-06-01 21:53:00,56.0,50.0,-100.00,WNW,301,0.0,3.0,79,0.00,,,0.00,14.000000,,2013-06-02 04:53:00,
2013-06-01 22:02:00,56.0,50.0,-100.00,WNW,301,0.0,3.0,79,0.00,,,0.00,14.000000,,2013-06-02 05:02:00,
2013-06-01 22:10:00,55.0,50.0,-100.00,East,93,1.0,3.0,83,0.00,,,0.00,1.000000,,2013-06-02 05:10:00,
2013-06-01 22:32:00,55.0,50.0,-100.00,East,93,1.0,3.0,83,0.00,,,0.00,1.000000,,2013-06-02 05:32:00,
2013-06-01 22:42:00,55.0,50.0,-100.00,East,93,1.0,3.0,83,0.00,,,0.00,1.000000,,2013-06-02 05:42:00,
2013-06-01 22:52:00,55.0,50.0,-100.00,East,93,1.0,3.0,83,0.00,,,0.00,1.000000,,2013-06-02 05:52:00,
2013-06-01 23:01:00,55.0,50.0,-100.00,East,93,1.0,3.0,83,0.00,,,0.00,1.000000,,2013-06-02 06:01:00,
2013-06-01 23:10:00,56.0,50.0,-100.00,North,5,2.0,6.0,79,0.00,,,0.00,1.000000,,2013-06-02 06:10:00,
2013-06-01 23:32:00,56.0,50.0,-100.00,North,5,2.0,6.0,79,0.00,,,0.00,1.000000,,2013-06-02 06:32:00,
2013-06-01 23:42:00,56.0,50.0,-100.00,North,5,2.0,6.0,79,0.00,,,0.00,1.000000,,2013-06-02 06:42:00,
2013-06-01 23:52:00,56.0,50.0,-100.00,North,5,2.0,6.0,79,0.00,,,0.00,1.000000,,2013-06-02 06:52:00,